Terminal Aerodrome Forecast
Issued by NWS

Home | Current Version | Previous Version | Text Only | Print | Product List | Glossary On
Versions: 1 2 3 4 5 6 7 8 9 10 11 12 13 14 15 16 17 18 19 20 21 22 23
918
FTUS41 KRLX 221725
TAFCKB
TAF
KCKB 221725Z 2218/2318 29010G14KT P6SM BKN023 BKN030
     FM222000 30008G12KT P6SM SCT150
     FM230000 32002KT P6SM FEW150
     FM230700 00000KT 3SM BR SCT150
     FM231300 09004KT P6SM BKN090=

USA.gov is the U.S. government's official web portal to all federal, state and local government web resources and services.